createdAt,value
2017-12-27T00:00:03.262Z,89.73
2017-12-27T00:02:36.223Z,89.97
2017-12-27T00:05:09.309Z,90.40
2017-12-27T00:07:42.253Z,90.64
2017-12-27T00:10:15.259Z,90.88
2017-12-27T00:12:48.349Z,91.08
2017-12-27T00:15:21.266Z,91.14
2017-12-27T00:17:54.219Z,91.14
2017-12-27T00:23:34.538Z,90.78
2017-12-27T00:26:07.515Z,90.72
2017-12-27T00:28:40.540Z,90.77
2017-12-27T00:31:09.810Z,90.66
2017-12-27T00:33:37.289Z,90.52
2017-12-27T00:36:04.775Z,90.51
2017-12-27T00:38:33.125Z,90.38
2017-12-27T00:41:00.676Z,90.65
2017-12-27T00:43:28.149Z,90.86
2017-12-27T00:45:55.671Z,90.72
2017-12-27T00:48:23.159Z,90.85
2017-12-27T00:50:50.626Z,90.70
2017-12-27T00:53:18.123Z,90.93
2017-12-27T00:55:45.603Z,91.17
2017-12-27T00:58:13.073Z,91.45
2017-12-27T01:00:40.620Z,91.55
2017-12-27T01:03:08.094Z,91.31
2017-12-27T01:05:35.599Z,91.32
2017-12-27T01:08:03.156Z,91.26
2017-12-27T01:10:30.642Z,91.09
2017-12-27T01:12:58.161Z,91.08
2017-12-27T01:15:25.633Z,90.98
2017-12-27T01:17:53.141Z,91.06
2017-12-27T01:20:20.607Z,91.39
2017-12-27T01:22:48.106Z,91.34
2017-12-27T01:25:15.611Z,91.04
2017-12-27T01:27:43.113Z,90.88
2017-12-27T01:30:10.604Z,90.83
2017-12-27T01:32:38.100Z,90.64
2017-12-27T01:35:05.592Z,90.85
2017-12-27T01:37:33.116Z,90.99
2017-12-27T01:40:00.616Z,91.28
2017-12-27T01:42:28.452Z,91.28
2017-12-27T01:44:55.945Z,91.20
2017-12-27T01:47:23.413Z,91.18
2017-12-27T01:49:50.916Z,91.38
2017-12-27T01:52:19.397Z,91.25
2017-12-27T01:54:46.895Z,91.12
2017-12-27T01:57:14.431Z,91.02
2017-12-27T01:59:42.002Z,90.92
2017-12-27T02:02:09.478Z,90.82
2017-12-27T02:04:39.985Z,90.78
2017-12-27T02:07:07.488Z,90.84
2017-12-27T02:09:34.947Z,90.77
2017-12-27T02:12:02.489Z,91.00
2017-12-27T02:14:29.987Z,91.27
2017-12-27T02:16:57.501Z,91.33
2017-12-27T02:19:24.983Z,91.38
2017-12-27T02:21:52.557Z,91.42
2017-12-27T02:24:20.028Z,91.53
2017-12-27T02:26:47.516Z,91.96
2017-12-27T02:29:15.042Z,92.15
2017-12-27T02:31:42.523Z,91.76
2017-12-27T02:34:09.992Z,91.48
2017-12-27T02:36:37.503Z,92.13
2017-12-27T02:39:05.031Z,92.55
2017-12-27T02:41:32.505Z,92.98
2017-12-27T02:44:00.003Z,93.36
2017-12-27T02:46:27.484Z,93.47
2017-12-27T02:48:54.996Z,93.60
2017-12-27T02:51:22.496Z,93.58
2017-12-27T02:53:50.015Z,93.59
2017-12-27T02:56:17.643Z,93.72
2017-12-27T02:58:45.183Z,93.90
2017-12-27T03:01:12.664Z,94.11
2017-12-27T03:03:40.107Z,94.13
2017-12-27T03:06:07.629Z,94.35
2017-12-27T03:08:35.612Z,94.57
2017-12-27T03:11:03.184Z,94.75
2017-12-27T03:13:30.663Z,94.94
2017-12-27T03:15:58.154Z,94.91
2017-12-27T03:18:25.630Z,94.57
2017-12-27T03:20:53.142Z,94.48
2017-12-27T03:23:20.613Z,94.45
2017-12-27T03:25:48.135Z,94.36
2017-12-27T03:28:15.779Z,94.49
2017-12-27T03:30:43.255Z,94.71
2017-12-27T03:33:10.725Z,94.71
2017-12-27T03:35:38.208Z,94.67
2017-12-27T03:38:05.690Z,94.65
2017-12-27T03:40:33.304Z,94.46
2017-12-27T03:43:00.809Z,94.34
2017-12-27T03:45:28.286Z,94.30
2017-12-27T03:47:55.784Z,94.33
2017-12-27T03:50:23.288Z,94.19
2017-12-27T03:52:50.859Z,94.01
2017-12-27T03:55:19.099Z,93.47
2017-12-27T03:57:46.600Z,93.20
2017-12-27T04:00:14.115Z,93.35
2017-12-27T04:02:41.629Z,93.63
2017-12-27T04:05:09.128Z,93.97
2017-12-27T04:07:36.587Z,94.04
2017-12-27T04:10:04.081Z,93.91
2017-12-27T04:12:31.713Z,94.09
2017-12-27T04:14:59.188Z,94.20
2017-12-27T04:17:26.651Z,94.32
2017-12-27T04:19:54.137Z,94.46
2017-12-27T04:22:21.614Z,94.54
2017-12-27T04:24:49.216Z,94.38
2017-12-27T04:27:16.811Z,93.92
2017-12-27T04:29:44.275Z,93.58
2017-12-27T04:32:11.742Z,93.39
2017-12-27T04:34:39.220Z,93.57
2017-12-27T04:37:06.685Z,93.63
2017-12-27T04:39:34.142Z,92.98
2017-12-27T04:42:01.641Z,92.67
2017-12-27T04:44:30.228Z,92.78
2017-12-27T04:46:57.727Z,93.19
2017-12-27T04:49:25.227Z,93.22
2017-12-27T04:51:52.732Z,93.48
2017-12-27T04:54:20.212Z,93.75
2017-12-27T04:56:47.709Z,93.91
2017-12-27T04:59:15.164Z,94.02
2017-12-27T05:01:42.628Z,94.11
2017-12-27T05:04:10.152Z,94.10
2017-12-27T05:06:37.616Z,93.80
2017-12-27T05:09:05.092Z,93.45
2017-12-27T05:11:32.621Z,93.60
2017-12-27T05:14:00.116Z,93.71
2017-12-27T05:16:27.620Z,93.54
2017-12-27T05:18:56.413Z,93.50
2017-12-27T05:21:23.943Z,93.63
2017-12-27T05:23:51.446Z,93.74
2017-12-27T05:26:18.943Z,93.89
2017-12-27T05:28:46.411Z,94.17
2017-12-27T05:31:13.877Z,94.28
2017-12-27T05:33:41.387Z,94.46
2017-12-27T05:45:49.968Z,94.22
2017-12-27T05:48:17.423Z,94.17
2017-12-27T05:50:44.909Z,94.20
2017-12-27T05:53:12.440Z,94.12
2017-12-27T05:55:39.894Z,94.26
2017-12-27T05:58:07.353Z,94.08
2017-12-27T06:00:34.858Z,94.09
2017-12-27T06:03:02.325Z,94.06
2017-12-27T06:05:29.812Z,94.13
2017-12-27T06:07:57.385Z,94.14
2017-12-27T06:10:24.889Z,94.01
2017-12-27T06:12:52.909Z,93.88
2017-12-27T06:15:20.390Z,93.98
2017-12-27T06:17:47.865Z,94.13
2017-12-27T06:20:15.832Z,94.21
2017-12-27T06:22:43.343Z,93.81
2017-12-27T06:25:10.823Z,93.90
2017-12-27T06:27:38.329Z,93.91
2017-12-27T06:30:05.825Z,94.00
2017-12-27T06:32:33.281Z,94.04
2017-12-27T06:35:00.740Z,93.77
2017-12-27T06:37:28.275Z,93.74
2017-12-27T06:39:55.728Z,93.61
2017-12-27T06:42:23.184Z,93.59
2017-12-27T06:44:50.657Z,93.48
2017-12-27T06:47:18.118Z,93.52
2017-12-27T06:49:45.583Z,93.30
2017-12-27T06:52:13.050Z,93.19
2017-12-27T06:54:40.528Z,92.96
2017-12-27T06:57:07.983Z,92.49
2017-12-27T06:59:35.484Z,92.52
2017-12-27T07:02:02.982Z,92.77
2017-12-27T07:04:30.435Z,92.98
2017-12-27T07:06:57.915Z,92.99
2017-12-27T07:09:25.473Z,92.83
2017-12-27T07:11:53.023Z,92.67
2017-12-27T07:14:20.591Z,92.60
2017-12-27T07:16:48.131Z,92.38
2017-12-27T07:19:15.603Z,92.43
2017-12-27T07:21:43.059Z,92.44
2017-12-27T07:24:10.524Z,92.47
2017-12-27T07:26:37.987Z,92.58
2017-12-27T07:29:05.442Z,92.36
2017-12-27T07:31:33.483Z,91.92
2017-12-27T07:34:00.939Z,91.33
2017-12-27T07:36:28.702Z,91.07
2017-12-27T07:38:56.239Z,90.97
2017-12-27T07:41:23.734Z,90.93
2017-12-27T07:43:51.203Z,91.12
2017-12-27T07:46:18.674Z,90.99
2017-12-27T07:48:46.156Z,90.35
2017-12-27T07:51:13.619Z,89.89
2017-12-27T07:53:41.106Z,89.03
2017-12-27T07:56:08.564Z,88.76
2017-12-27T07:58:36.054Z,88.91
2017-12-27T08:01:03.591Z,89.19
2017-12-27T08:03:31.090Z,89.55
2017-12-27T08:05:58.552Z,89.19
2017-12-27T08:08:26.047Z,89.01
2017-12-27T08:10:53.501Z,88.97
2017-12-27T08:13:20.974Z,89.02
2017-12-27T08:15:48.448Z,88.79
2017-12-27T08:18:16.486Z,88.21
2017-12-27T08:20:43.945Z,87.94
2017-12-27T08:23:11.424Z,87.70
2017-12-27T08:25:38.944Z,87.17
2017-12-27T08:28:06.462Z,87.25
2017-12-27T08:30:34.640Z,86.95
2017-12-27T08:33:02.131Z,86.46
2017-12-27T08:35:30.240Z,86.31
2017-12-27T08:37:57.768Z,86.09
2017-12-27T08:40:25.211Z,85.96
2017-12-27T08:42:52.666Z,85.61
2017-12-27T08:45:20.211Z,85.74
2017-12-27T08:47:47.661Z,85.74
2017-12-27T08:50:15.578Z,85.55
2017-12-27T08:52:43.065Z,85.02
2017-12-27T08:55:10.520Z,84.51
2017-12-27T08:57:37.960Z,84.50
2017-12-27T09:00:05.430Z,83.94
2017-12-27T09:02:32.952Z,83.32
2017-12-27T09:05:00.427Z,83.29
2017-12-27T09:07:27.887Z,82.88
2017-12-27T09:09:55.363Z,82.94
2017-12-27T09:12:22.850Z,82.12
2017-12-27T09:14:50.424Z,81.77
2017-12-27T09:17:17.870Z,82.02
2017-12-27T09:19:45.331Z,82.08
2017-12-27T09:22:12.804Z,81.85
2017-12-27T09:24:40.263Z,81.03
2017-12-27T09:27:07.837Z,80.45
2017-12-27T09:29:35.328Z,80.21
2017-12-27T09:32:02.788Z,80.21
2017-12-27T09:34:30.282Z,79.80
2017-12-27T09:36:57.764Z,79.10
2017-12-27T09:39:25.246Z,79.04
2017-12-27T09:41:52.707Z,78.65
2017-12-27T09:44:20.175Z,78.85
2017-12-27T09:46:47.622Z,78.99
2017-12-27T09:49:15.094Z,79.07
2017-12-27T09:51:42.583Z,79.07
2017-12-27T09:54:10.143Z,78.87
2017-12-27T09:56:37.750Z,78.92
2017-12-27T09:59:05.241Z,79.17
2017-12-27T10:01:32.709Z,78.61
2017-12-27T10:04:00.281Z,78.97
2017-12-27T10:06:27.939Z,79.59
2017-12-27T10:08:55.491Z,79.71
2017-12-27T10:11:22.939Z,79.63
2017-12-27T10:13:50.445Z,79.17
2017-12-27T10:16:17.906Z,78.63
2017-12-27T10:18:45.372Z,78.11
2017-12-27T10:21:13.052Z,78.41
2017-12-27T10:23:40.508Z,78.68
2017-12-27T10:26:07.970Z,78.53
2017-12-27T10:28:36.842Z,78.28
2017-12-27T10:31:04.299Z,78.32
2017-12-27T10:33:31.768Z,78.15
2017-12-27T10:35:59.231Z,78.18
2017-12-27T10:38:26.743Z,78.73
2017-12-27T10:40:54.191Z,79.12
2017-12-27T10:43:21.658Z,79.49
2017-12-27T10:45:49.151Z,79.64
2017-12-27T10:48:16.616Z,79.86
2017-12-27T10:50:44.088Z,80.06
2017-12-27T10:53:11.785Z,79.31
2017-12-27T10:55:39.252Z,78.57
2017-12-27T10:58:06.748Z,78.39
2017-12-27T11:00:34.226Z,77.78
2017-12-27T11:03:01.701Z,77.15
2017-12-27T11:05:29.187Z,76.63
2017-12-27T11:07:56.647Z,76.76
2017-12-27T11:10:24.110Z,76.61
2017-12-27T11:12:51.631Z,76.06
2017-12-27T11:15:19.091Z,76.53
2017-12-27T11:17:46.591Z,76.70
2017-12-27T11:20:14.192Z,76.49
2017-12-27T11:22:41.711Z,75.61
2017-12-27T11:25:09.175Z,74.72
2017-12-27T11:27:36.723Z,74.34
2017-12-27T11:30:04.219Z,73.08
2017-12-27T11:32:31.990Z,72.55
2017-12-27T11:34:59.515Z,71.65
2017-12-27T11:37:26.987Z,71.04
2017-12-27T11:39:54.652Z,70.03
2017-12-27T11:42:22.135Z,69.25
2017-12-27T11:44:49.639Z,67.41
2017-12-27T11:47:17.118Z,66.57
2017-12-27T11:49:44.600Z,66.10
2017-12-27T11:52:12.084Z,65.57
2017-12-27T11:54:39.570Z,65.22
2017-12-27T11:57:07.071Z,65.07
2017-12-27T11:59:34.536Z,64.63
2017-12-27T12:02:02.027Z,64.73
2017-12-27T12:04:29.524Z,65.07
2017-12-27T12:06:56.999Z,65.35
2017-12-27T12:09:24.505Z,65.47
2017-12-27T12:11:51.980Z,65.76
2017-12-27T12:14:19.442Z,65.96
2017-12-27T12:16:46.957Z,66.61
2017-12-27T12:19:14.449Z,66.75
2017-12-27T12:21:41.927Z,67.02
2017-12-27T12:24:09.950Z,67.38
2017-12-27T12:26:37.480Z,67.67
2017-12-27T12:29:04.959Z,67.67
2017-12-27T12:31:32.441Z,67.75
2017-12-27T12:33:59.936Z,67.62
2017-12-27T12:36:27.633Z,67.57
2017-12-27T12:38:55.336Z,67.35
2017-12-27T12:41:22.846Z,67.28
2017-12-27T12:43:50.324Z,67.30
2017-12-27T12:46:18.115Z,66.93
2017-12-27T12:48:45.617Z,67.29
2017-12-27T12:51:13.093Z,67.06
2017-12-27T12:53:40.595Z,67.10
2017-12-27T12:56:08.187Z,67.37
2017-12-27T12:58:36.304Z,67.51
2017-12-27T13:01:03.808Z,67.86
2017-12-27T13:03:31.282Z,68.10
2017-12-27T13:05:58.758Z,68.54
2017-12-27T13:08:26.257Z,68.70
2017-12-27T13:10:54.195Z,68.38
2017-12-27T13:13:22.520Z,68.43
2017-12-27T13:15:50.088Z,68.71
2017-12-27T13:18:17.550Z,68.98
2017-12-27T13:20:45.044Z,69.47
2017-12-27T13:23:12.508Z,69.74
2017-12-27T13:25:39.970Z,69.94
2017-12-27T13:28:07.450Z,70.08
2017-12-27T13:30:34.937Z,69.99
2017-12-27T13:33:02.631Z,70.02
2017-12-27T13:35:30.099Z,70.09
2017-12-27T13:37:57.633Z,70.51
2017-12-27T13:40:25.145Z,70.20
2017-12-27T13:42:52.891Z,70.35
2017-12-27T13:45:20.482Z,70.55
2017-12-27T13:47:47.956Z,70.59
2017-12-27T13:50:15.782Z,70.43
2017-12-27T13:52:43.313Z,70.57
2017-12-27T13:55:10.913Z,70.58
2017-12-27T13:57:38.381Z,70.45
2017-12-27T14:00:06.595Z,70.42
2017-12-27T14:02:34.246Z,70.42
2017-12-27T14:05:01.748Z,70.48
2017-12-27T14:07:29.255Z,70.13
2017-12-27T14:09:56.719Z,70.05
2017-12-27T14:12:25.399Z,70.22
2017-12-27T14:14:52.963Z,70.67
2017-12-27T14:17:20.519Z,70.29
2017-12-27T14:19:48.031Z,70.27
2017-12-27T14:22:15.660Z,70.53
2017-12-27T14:24:43.269Z,70.36
2017-12-27T14:27:10.730Z,71.01
2017-12-27T14:29:38.215Z,71.16
2017-12-27T14:32:05.688Z,70.67
2017-12-27T14:34:33.160Z,70.16
2017-12-27T14:37:00.658Z,70.24
2017-12-27T14:39:28.153Z,70.19
2017-12-27T14:41:55.624Z,70.58
2017-12-27T14:44:23.095Z,70.82
2017-12-27T14:46:50.559Z,70.97
2017-12-27T14:49:18.042Z,71.01
2017-12-27T14:51:45.551Z,71.57
2017-12-27T14:54:13.031Z,71.49
2017-12-27T14:56:40.647Z,71.56
2017-12-27T14:59:08.211Z,71.89
2017-12-27T15:01:35.682Z,71.87
2017-12-27T15:04:03.148Z,71.78
2017-12-27T15:06:30.683Z,71.92
2017-12-27T15:08:58.171Z,71.91
2017-12-27T15:11:25.672Z,71.90
2017-12-27T15:13:53.183Z,71.91
2017-12-27T15:16:20.681Z,71.88
2017-12-27T15:18:48.648Z,72.14
2017-12-27T15:21:16.209Z,71.97
2017-12-27T15:23:43.679Z,71.63
2017-12-27T15:26:11.163Z,71.68
2017-12-27T15:28:38.939Z,71.47
2017-12-27T15:31:06.482Z,71.62
2017-12-27T15:33:33.960Z,71.84
2017-12-27T15:36:01.491Z,71.88
2017-12-27T15:38:28.995Z,71.81
2017-12-27T15:40:56.464Z,71.84
2017-12-27T15:43:24.670Z,71.69
2017-12-27T15:45:52.142Z,71.75
2017-12-27T15:48:19.618Z,71.37
2017-12-27T15:50:47.080Z,71.17
2017-12-27T15:53:14.551Z,71.21
2017-12-27T15:55:42.039Z,71.09
2017-12-27T15:58:09.523Z,71.29
2017-12-27T16:00:37.069Z,71.28
2017-12-27T16:03:04.583Z,71.12
2017-12-27T16:05:32.051Z,71.23
2017-12-27T16:07:59.565Z,71.26
2017-12-27T16:10:27.035Z,71.23
2017-12-27T16:12:54.520Z,71.08
2017-12-27T16:15:22.399Z,71.03
2017-12-27T16:17:49.958Z,71.30
2017-12-27T16:20:17.527Z,71.70
2017-12-27T16:22:45.041Z,71.98
2017-12-27T16:25:12.552Z,72.07
2017-12-27T16:27:40.008Z,72.15
2017-12-27T16:30:07.478Z,72.30
2017-12-27T16:32:35.111Z,72.38
2017-12-27T16:35:02.664Z,72.52
2017-12-27T16:37:30.143Z,72.67
2017-12-27T16:39:57.623Z,72.68
2017-12-27T16:42:25.114Z,72.77
2017-12-27T16:44:52.655Z,72.66
2017-12-27T16:47:20.140Z,72.93
2017-12-27T16:49:47.627Z,72.97
2017-12-27T16:52:15.187Z,73.38
2017-12-27T16:54:42.811Z,73.82
2017-12-27T16:57:10.285Z,74.10
2017-12-27T16:59:37.764Z,74.10
2017-12-27T17:02:05.235Z,74.29
2017-12-27T17:04:32.703Z,74.17
2017-12-27T17:07:00.568Z,73.86
2017-12-27T17:09:28.037Z,74.16
2017-12-27T17:11:55.498Z,73.71
2017-12-27T17:14:22.979Z,73.93
2017-12-27T17:16:50.448Z,73.58
2017-12-27T17:19:17.943Z,73.93
2017-12-27T17:21:45.416Z,73.55
2017-12-27T17:24:12.912Z,73.46
2017-12-27T17:26:40.394Z,73.37
2017-12-27T17:29:07.872Z,73.63
2017-12-27T17:31:35.370Z,73.67
2017-12-27T17:34:02.860Z,73.54
2017-12-27T17:36:30.327Z,73.63
2017-12-27T17:38:57.802Z,73.61
2017-12-27T17:41:25.267Z,73.55
2017-12-27T17:43:52.740Z,73.28
2017-12-27T17:46:20.228Z,73.60
2017-12-27T17:48:47.815Z,73.40
2017-12-27T17:51:15.381Z,73.21
2017-12-27T17:53:42.890Z,73.13
2017-12-27T17:56:10.377Z,72.87
2017-12-27T17:58:37.859Z,73.10
2017-12-27T18:01:05.341Z,73.01
2017-12-27T18:03:32.827Z,72.78
2017-12-27T18:06:00.288Z,72.59
2017-12-27T18:08:27.763Z,72.62
2017-12-27T18:10:55.261Z,72.95
2017-12-27T18:13:22.731Z,73.23
2017-12-27T18:15:50.188Z,73.41
2017-12-27T18:18:17.668Z,73.17
2017-12-27T18:20:45.147Z,73.15
2017-12-27T18:23:12.623Z,73.16
2017-12-27T18:25:40.108Z,73.68
2017-12-27T18:28:07.581Z,73.71
2017-12-27T18:30:35.087Z,74.06
2017-12-27T18:33:02.551Z,74.30
2017-12-27T18:35:30.055Z,74.47
2017-12-27T18:37:57.557Z,74.46
2017-12-27T18:40:25.032Z,74.36
2017-12-27T18:42:52.517Z,74.07
2017-12-27T18:45:20.004Z,73.86
2017-12-27T18:47:48.654Z,73.79
2017-12-27T18:50:16.385Z,73.87
2017-12-27T18:52:43.886Z,73.57
2017-12-27T18:55:11.360Z,73.87
2017-12-27T18:57:38.849Z,73.74
2017-12-27T19:00:06.310Z,74.02
2017-12-27T19:02:33.990Z,73.97
2017-12-27T19:05:01.488Z,73.82
2017-12-27T19:07:28.975Z,73.76
2017-12-27T19:09:56.635Z,73.87
2017-12-27T19:12:24.103Z,74.08
2017-12-27T19:14:51.578Z,73.93
2017-12-27T19:17:19.232Z,73.56
2017-12-27T19:19:46.737Z,73.24
2017-12-27T19:22:14.321Z,72.68
2017-12-27T19:24:41.844Z,72.36
2017-12-27T19:27:09.364Z,71.73
2017-12-27T19:29:36.908Z,71.56
2017-12-27T19:32:04.410Z,70.94
2017-12-27T19:34:31.873Z,70.97
2017-12-27T19:36:59.374Z,70.71
2017-12-27T19:39:26.943Z,70.29
2017-12-27T19:41:54.493Z,69.81
2017-12-27T19:44:22.052Z,69.78
2017-12-27T19:46:49.629Z,69.70
2017-12-27T19:49:17.207Z,69.65
2017-12-27T19:51:44.846Z,69.77
2017-12-27T19:54:12.469Z,69.74
2017-12-27T19:56:40.170Z,69.35
2017-12-27T19:59:07.880Z,69.08
2017-12-27T20:01:35.586Z,68.17
2017-12-27T20:04:03.349Z,67.36
2017-12-27T20:06:31.225Z,67.10
2017-12-27T20:08:58.991Z,66.55
2017-12-27T20:11:26.672Z,66.30
2017-12-27T20:13:54.460Z,66.19
2017-12-27T20:16:22.209Z,66.19
2017-12-27T20:18:50.408Z,66.83
2017-12-27T20:21:18.264Z,67.20
2017-12-27T20:23:46.012Z,67.48
2017-12-27T20:26:13.761Z,67.43
2017-12-27T20:28:41.527Z,67.21
2017-12-27T20:31:09.282Z,67.06
2017-12-27T20:33:37.070Z,67.06
2017-12-27T20:36:04.892Z,66.85
2017-12-27T20:38:32.813Z,66.63
2017-12-27T20:41:00.582Z,66.32
2017-12-27T20:43:28.391Z,66.48
2017-12-27T20:45:56.210Z,66.71
2017-12-27T20:48:24.205Z,66.46
2017-12-27T20:50:52.044Z,66.41
2017-12-27T20:53:19.841Z,66.64
2017-12-27T20:55:47.543Z,66.42
2017-12-27T20:58:15.856Z,66.23
2017-12-27T21:00:43.691Z,66.50
2017-12-27T21:03:11.441Z,66.47
2017-12-27T21:05:39.204Z,66.87
2017-12-27T21:08:07.497Z,66.54
2017-12-27T21:10:35.193Z,66.93
2017-12-27T21:13:03.025Z,67.10
2017-12-27T21:15:30.669Z,67.14
2017-12-27T21:17:58.275Z,67.57
2017-12-27T21:20:25.927Z,68.03
2017-12-27T21:22:53.522Z,68.04
2017-12-27T21:25:21.149Z,67.61
2017-12-27T21:27:48.714Z,67.96
2017-12-27T21:30:16.284Z,67.42
2017-12-27T21:32:43.788Z,67.59
2017-12-27T21:35:11.325Z,67.87
2017-12-27T21:37:38.836Z,67.91
2017-12-27T21:40:06.337Z,67.84
2017-12-27T21:42:33.903Z,67.80
2017-12-27T21:45:01.419Z,67.96
2017-12-27T21:47:34.294Z,68.35
2017-12-27T21:50:01.776Z,68.34
2017-12-27T21:52:29.267Z,68.31
2017-12-27T21:54:56.796Z,68.35
2017-12-27T21:57:24.992Z,68.14
2017-12-27T21:59:57.971Z,68.03
2017-12-27T22:02:25.925Z,68.24
2017-12-27T22:04:53.384Z,68.20
2017-12-27T22:07:20.858Z,68.09
2017-12-27T22:09:48.372Z,67.99
2017-12-27T22:12:15.798Z,67.91
2017-12-27T22:14:43.271Z,67.98
2017-12-27T22:17:10.723Z,67.84
2017-12-27T22:19:38.179Z,67.81
2017-12-27T22:22:05.663Z,68.04
2017-12-27T22:24:33.119Z,67.78
2017-12-27T22:27:00.548Z,67.77
2017-12-27T22:29:28.013Z,67.92
2017-12-27T22:31:55.809Z,67.83
2017-12-27T22:34:23.273Z,67.92
2017-12-27T22:36:50.743Z,67.65
2017-12-27T22:39:18.209Z,67.04
2017-12-27T22:41:45.767Z,67.12
2017-12-27T22:44:13.241Z,67.25
2017-12-27T22:46:40.706Z,67.43
2017-12-27T22:49:08.173Z,67.01
2017-12-27T22:51:35.685Z,67.47
2017-12-27T22:54:03.152Z,67.24
2017-12-27T22:56:30.677Z,67.42
2017-12-27T22:58:58.139Z,67.27
2017-12-27T23:01:25.596Z,67.59
2017-12-27T23:03:53.157Z,67.74
2017-12-27T23:06:20.684Z,67.87
2017-12-27T23:08:48.138Z,67.52
2017-12-27T23:11:15.591Z,67.00
2017-12-27T23:13:43.064Z,67.15
2017-12-27T23:16:10.537Z,66.70
2017-12-27T23:18:37.991Z,67.18
2017-12-27T23:21:05.473Z,66.97
2017-12-27T23:23:32.984Z,66.82
2017-12-27T23:26:00.440Z,66.72
2017-12-27T23:28:27.904Z,66.66
2017-12-27T23:30:55.413Z,66.80
2017-12-27T23:33:22.883Z,66.17
2017-12-27T23:35:50.347Z,66.45
2017-12-27T23:38:18.042Z,66.90
2017-12-27T23:40:45.518Z,66.84
2017-12-27T23:43:13.043Z,66.84
2017-12-27T23:45:40.511Z,66.60
2017-12-27T23:48:08.032Z,66.74
2017-12-27T23:50:35.625Z,67.01
2017-12-27T23:53:03.080Z,67.17
2017-12-27T23:55:30.552Z,67.37
2017-12-27T23:57:58.051Z,67.27
